sensor_id;sensor_type;location;lat;lon;timestamp;pressure;altitude;pressure_sealevel;temperature;humidity
59409;BME280;45213;32.654;-115.458;2022-12-29T00:01:38;101004.78;;;22.48;45.01
59409;BME280;45213;32.654;-115.458;2022-12-29T00:04:06;101006.88;;;22.39;45.34
59409;BME280;45213;32.654;-115.458;2022-12-29T00:06:32;101008.47;;;22.19;46.41
59409;BME280;45213;32.654;-115.458;2022-12-29T00:08:59;101010.38;;;22.14;45.82
59409;BME280;45213;32.654;-115.458;2022-12-29T00:11:27;101009.81;;;22.06;46.76
59409;BME280;45213;32.654;-115.458;2022-12-29T00:13:53;101015.28;;;22.01;47.09
59409;BME280;45213;32.654;-115.458;2022-12-29T00:16:41;101025.69;;;21.81;47.50
59409;BME280;45213;32.654;-115.458;2022-12-29T00:19:09;101020.94;;;21.64;48.63
59409;BME280;45213;32.654;-115.458;2022-12-29T00:21:57;101015.25;;;21.50;49.42
59409;BME280;45213;32.654;-115.458;2022-12-29T00:24:43;101026.66;;;21.52;49.65
59409;BME280;45213;32.654;-115.458;2022-12-29T00:27:30;101028.50;;;21.50;49.88
59409;BME280;45213;32.654;-115.458;2022-12-29T00:30:17;101026.25;;;21.36;50.25
59409;BME280;45213;32.654;-115.458;2022-12-29T00:38:48;101042.34;;;21.01;52.23
59409;BME280;45213;32.654;-115.458;2022-12-29T00:41:35;101062.25;;;20.85;54.49
59409;BME280;45213;32.654;-115.458;2022-12-29T00:44:20;101052.22;;;20.65;55.88
59409;BME280;45213;32.654;-115.458;2022-12-29T00:46:46;101052.06;;;20.37;56.69
59409;BME280;45213;32.654;-115.458;2022-12-29T00:49:14;101063.75;;;20.30;57.42
59409;BME280;45213;32.654;-115.458;2022-12-29T00:54:29;101075.72;;;20.10;58.35
59409;BME280;45213;32.654;-115.458;2022-12-29T00:56:56;101076.78;;;20.03;58.49
59409;BME280;45213;32.654;-115.458;2022-12-29T00:59:24;101079.63;;;19.94;58.44
59409;BME280;45213;32.654;-115.458;2022-12-29T01:01:51;101079.94;;;19.83;58.29
59409;BME280;45213;32.654;-115.458;2022-12-29T01:04:21;101081.78;;;19.78;58.25
59409;BME280;45213;32.654;-115.458;2022-12-29T01:06:48;101087.31;;;19.69;58.22
59409;BME280;45213;32.654;-115.458;2022-12-29T01:09:15;101084.75;;;19.64;57.80
59409;BME280;45213;32.654;-115.458;2022-12-29T01:12:01;101081.47;;;19.53;58.57
59409;BME280;45213;32.654;-115.458;2022-12-29T01:14:28;101085.03;;;19.52;58.60
59409;BME280;45213;32.654;-115.458;2022-12-29T01:16:55;101091.28;;;19.48;58.49
59409;BME280;45213;32.654;-115.458;2022-12-29T01:19:22;101098.56;;;19.38;58.50
59409;BME280;45213;32.654;-115.458;2022-12-29T01:21:50;101103.94;;;19.35;58.92
59409;BME280;45213;32.654;-115.458;2022-12-29T01:24:19;101099.53;;;19.34;58.83
59409;BME280;45213;32.654;-115.458;2022-12-29T01:26:47;101107.75;;;19.20;58.81
59409;BME280;45213;32.654;-115.458;2022-12-29T01:29:16;101110.59;;;19.11;58.77
59409;BME280;45213;32.654;-115.458;2022-12-29T01:31:45;101102.59;;;19.14;59.14
59409;BME280;45213;32.654;-115.458;2022-12-29T01:34:12;101107.94;;;19.12;58.29
59409;BME280;45213;32.654;-115.458;2022-12-29T01:36:40;101106.28;;;19.05;58.41
59409;BME280;45213;32.654;-115.458;2022-12-29T01:39:06;101109.03;;;19.01;58.44
59409;BME280;45213;32.654;-115.458;2022-12-29T01:41:33;101119.66;;;18.97;58.31
59409;BME280;45213;32.654;-115.458;2022-12-29T01:44:02;101118.94;;;18.89;58.48
59409;BME280;45213;32.654;-115.458;2022-12-29T01:54:24;101126.31;;;18.72;58.56
59409;BME280;45213;32.654;-115.458;2022-12-29T01:56:55;101125.63;;;18.62;58.92
59409;BME280;45213;32.654;-115.458;2022-12-29T01:59:28;101126.53;;;18.60;59.08
59409;BME280;45213;32.654;-115.458;2022-12-29T02:01:56;101136.28;;;18.54;59.28
59409;BME280;45213;32.654;-115.458;2022-12-29T02:04:24;101145.16;;;18.50;59.68
59409;BME280;45213;32.654;-115.458;2022-12-29T02:06:58;101140.84;;;18.46;59.80
59409;BME280;45213;32.654;-115.458;2022-12-29T02:09:27;101142.72;;;18.40;59.72
59409;BME280;45213;32.654;-115.458;2022-12-29T02:11:54;101151.63;;;18.32;60.21
59409;BME280;45213;32.654;-115.458;2022-12-29T02:14:21;101153.53;;;18.24;60.44
59409;BME280;45213;32.654;-115.458;2022-12-29T02:25:59;101170.50;;;18.08;61.08
59409;BME280;45213;32.654;-115.458;2022-12-29T02:36:45;101187.56;;;17.82;62.17
59409;BME280;45213;32.654;-115.458;2022-12-29T02:42:16;101196.47;;;17.72;62.44
59409;BME280;45213;32.654;-115.458;2022-12-29T02:45:34;101206.13;;;17.70;62.52
59409;BME280;45213;32.654;-115.458;2022-12-29T02:50:40;101207.13;;;17.61;62.87
59409;BME280;45213;32.654;-115.458;2022-12-29T02:53:15;101213.25;;;17.63;62.83
59409;BME280;45213;32.654;-115.458;2022-12-29T02:56:03;101202.78;;;17.59;63.03
59409;BME280;45213;32.654;-115.458;2022-12-29T02:58:30;101211.53;;;17.59;62.88
59409;BME280;45213;32.654;-115.458;2022-12-29T03:09:22;101223.16;;;17.43;63.52
59409;BME280;45213;32.654;-115.458;2022-12-29T03:11:59;101226.72;;;17.40;63.74
59409;BME280;45213;32.654;-115.458;2022-12-29T03:17:59;101223.22;;;17.38;64.05
59409;BME280;45213;32.654;-115.458;2022-12-29T03:20:42;101210.94;;;17.39;64.14
59409;BME280;45213;32.654;-115.458;2022-12-29T03:23:13;101207.50;;;17.33;64.51
59409;BME280;45213;32.654;-115.458;2022-12-29T03:25:44;101202.22;;;17.33;64.55
59409;BME280;45213;32.654;-115.458;2022-12-29T03:28:31;101202.28;;;17.29;64.76
59409;BME280;45213;32.654;-115.458;2022-12-29T03:31:03;101204.84;;;17.33;64.40
59409;BME280;45213;32.654;-115.458;2022-12-29T03:33:32;101206.63;;;17.31;64.26
59409;BME280;45213;32.654;-115.458;2022-12-29T03:36:04;101211.84;;;17.35;64.45
59409;BME280;45213;32.654;-115.458;2022-12-29T03:38:37;101208.38;;;17.32;64.40
59409;BME280;45213;32.654;-115.458;2022-12-29T03:41:10;101211.84;;;17.35;64.30
59409;BME280;45213;32.654;-115.458;2022-12-29T03:43:39;101205.81;;;17.26;64.53
59409;BME280;45213;32.654;-115.458;2022-12-29T03:46:05;101201.44;;;17.25;64.70
59409;BME280;45213;32.654;-115.458;2022-12-29T03:48:33;101205.84;;;17.23;64.65
59409;BME280;45213;32.654;-115.458;2022-12-29T03:51:00;101204.97;;;17.24;64.87
59409;BME280;45213;32.654;-115.458;2022-12-29T03:53:27;101197.06;;;17.24;64.44
59409;BME280;45213;32.654;-115.458;2022-12-29T03:55:54;101202.34;;;17.24;64.59
59409;BME280;45213;32.654;-115.458;2022-12-29T03:58:21;101200.56;;;17.26;64.61
59409;BME280;45213;32.654;-115.458;2022-12-29T04:01:06;101205.78;;;17.28;64.72
59409;BME280;45213;32.654;-115.458;2022-12-29T04:03:36;101202.31;;;17.26;64.14
59409;BME280;45213;32.654;-115.458;2022-12-29T04:06:04;101207.56;;;17.26;64.37
59409;BME280;45213;32.654;-115.458;2022-12-29T04:08:53;101209.38;;;17.24;64.57
59409;BME280;45213;32.654;-115.458;2022-12-29T04:11:22;101211.09;;;17.26;64.59
59409;BME280;45213;32.654;-115.458;2022-12-29T04:13:50;101219.00;;;17.23;64.71
59409;BME280;45213;32.654;-115.458;2022-12-29T04:16:21;101215.50;;;17.24;64.54
59409;BME280;45213;32.654;-115.458;2022-12-29T04:18:48;101210.28;;;17.18;64.37
59409;BME280;45213;32.654;-115.458;2022-12-29T04:21:15;101207.63;;;17.21;64.31
59409;BME280;45213;32.654;-115.458;2022-12-29T04:23:42;101207.66;;;17.20;63.79
59409;BME280;45213;32.654;-115.458;2022-12-29T04:26:10;101210.25;;;17.21;63.59
59409;BME280;45213;32.654;-115.458;2022-12-29T04:28:55;101217.31;;;17.19;63.62
59409;BME280;45213;32.654;-115.458;2022-12-29T04:31:42;101216.47;;;17.16;63.33
59409;BME280;45213;32.654;-115.458;2022-12-29T04:34:09;101220.81;;;17.18;63.24
59409;BME280;45213;32.654;-115.458;2022-12-29T04:36:35;101218.25;;;17.15;62.85
59409;BME280;45213;32.654;-115.458;2022-12-29T04:39:02;101236.63;;;17.18;62.76
59409;BME280;45213;32.654;-115.458;2022-12-29T04:41:31;101241.91;;;17.15;62.69
59409;BME280;45213;32.654;-115.458;2022-12-29T04:43:58;101244.50;;;17.17;62.40
59409;BME280;45213;32.654;-115.458;2022-12-29T04:46:43;101248.97;;;17.11;62.28
59409;BME280;45213;32.654;-115.458;2022-12-29T04:49:19;101257.75;;;17.10;62.35
59409;BME280;45213;32.654;-115.458;2022-12-29T04:52:21;101211.56;;;16.80;62.18
59409;BME280;45213;32.654;-115.458;2022-12-29T04:54:48;101255.13;;;17.09;62.08
59409;BME280;45213;32.654;-115.458;2022-12-29T04:57:18;101261.31;;;17.08;62.35
59409;BME280;45213;32.654;-115.458;2022-12-29T04:59:50;101261.31;;;17.05;62.26
59409;BME280;45213;32.654;-115.458;2022-12-29T05:02:17;101259.63;;;16.98;62.42
59409;BME280;45213;32.654;-115.458;2022-12-29T05:04:45;101257.00;;;16.99;62.04
59409;BME280;45213;32.654;-115.458;2022-12-29T05:07:12;101258.75;;;16.99;62.17
59409;BME280;45213;32.654;-115.458;2022-12-29T05:09:39;101261.44;;;16.93;62.47
59409;BME280;45213;32.654;-115.458;2022-12-29T05:12:06;101254.41;;;16.91;62.36
59409;BME280;45213;32.654;-115.458;2022-12-29T05:14:34;101259.69;;;16.91;62.24
59409;BME280;45213;32.654;-115.458;2022-12-29T05:17:02;101264.97;;;16.88;62.22
59409;BME280;45213;32.654;-115.458;2022-12-29T05:19:30;101269.38;;;16.88;62.31
59409;BME280;45213;32.654;-115.458;2022-12-29T05:21:58;101271.97;;;16.93;61.79
59409;BME280;45213;32.654;-115.458;2022-12-29T05:24:25;101269.38;;;16.88;61.89
59409;BME280;45213;32.654;-115.458;2022-12-29T05:26:54;101258.88;;;16.85;62.13
59409;BME280;45213;32.654;-115.458;2022-12-29T05:29:34;101262.34;;;16.88;61.92
59409;BME280;45213;32.654;-115.458;2022-12-29T05:32:00;101253.63;;;16.83;62.13
59409;BME280;45213;32.654;-115.458;2022-12-29T05:34:28;101258.06;;;16.77;62.46
59409;BME280;45213;32.654;-115.458;2022-12-29T05:36:55;101266.84;;;16.74;62.50
59409;BME280;45213;32.654;-115.458;2022-12-29T05:39:23;101263.31;;;16.80;62.31
59409;BME280;45213;32.654;-115.458;2022-12-29T05:41:55;101266.81;;;16.80;62.12
59409;BME280;45213;32.654;-115.458;2022-12-29T05:44:31;101261.53;;;16.82;62.03
59409;BME280;45213;32.654;-115.458;2022-12-29T05:47:20;101264.22;;;16.71;62.45
59409;BME280;45213;32.654;-115.458;2022-12-29T05:50:08;101266.97;;;16.60;62.45
59409;BME280;45213;32.654;-115.458;2022-12-29T05:52:58;101279.16;;;16.66;62.70
59409;BME280;45213;32.654;-115.458;2022-12-29T05:55:24;101275.72;;;16.59;62.78
59409;BME280;45213;32.654;-115.458;2022-12-29T05:57:53;101267.00;;;16.53;62.84
59409;BME280;45213;32.654;-115.458;2022-12-29T06:00:20;101277.47;;;16.57;62.76
59409;BME280;45213;32.654;-115.458;2022-12-29T06:02:47;101288.03;;;16.53;62.55
59409;BME280;45213;32.654;-115.458;2022-12-29T06:05:16;101284.53;;;16.50;62.69
59409;BME280;45213;32.654;-115.458;2022-12-29T06:07:43;101293.28;;;16.54;62.31
59409;BME280;45213;32.654;-115.458;2022-12-29T06:10:11;101288.03;;;16.53;62.24
59409;BME280;45213;32.654;-115.458;2022-12-29T06:12:52;101301.22;;;16.49;62.27
59409;BME280;45213;32.654;-115.458;2022-12-29T06:15:19;101299.44;;;16.48;62.76
59409;BME280;45213;32.654;-115.458;2022-12-29T06:17:48;101316.13;;;16.47;62.75
59409;BME280;45213;32.654;-115.458;2022-12-29T06:20:15;101318.78;;;16.43;63.33
59409;BME280;45213;32.654;-115.458;2022-12-29T06:22:42;101325.84;;;16.35;64.34
59409;BME280;45213;32.654;-115.458;2022-12-29T06:25:09;101341.63;;;16.32;66.43
59409;BME280;45213;32.654;-115.458;2022-12-29T06:27:36;101339.91;;;16.31;68.36
59409;BME280;45213;32.654;-115.458;2022-12-29T06:30:03;101351.34;;;16.22;70.78
59409;BME280;45213;32.654;-115.458;2022-12-29T06:32:30;101344.34;;;16.12;72.48
59409;BME280;45213;32.654;-115.458;2022-12-29T06:35:03;101340.88;;;16.06;73.55
59409;BME280;45213;32.654;-115.458;2022-12-29T06:37:30;101337.41;;;16.04;74.47
59409;BME280;45213;32.654;-115.458;2022-12-29T06:39:57;101342.66;;;16.01;75.23
59409;BME280;45213;32.654;-115.458;2022-12-29T06:42:30;101339.19;;;15.93;76.19
59409;BME280;45213;32.654;-115.458;2022-12-29T06:45:25;101356.75;;;15.82;78.05
59409;BME280;45213;32.654;-115.458;2022-12-29T06:47:52;101358.53;;;15.68;79.61
59409;BME280;45213;32.654;-115.458;2022-12-29T06:50:18;101358.53;;;15.71;80.17
59409;BME280;45213;32.654;-115.458;2022-12-29T06:52:45;101365.53;;;15.73;79.82
59409;BME280;45213;32.654;-115.458;2022-12-29T06:55:11;101374.28;;;15.61;80.88
59409;BME280;45213;32.654;-115.458;2022-12-29T06:57:38;101370.78;;;15.49;82.38
59409;BME280;45213;32.654;-115.458;2022-12-29T07:00:05;101368.19;;;15.42;83.08
59409;BME280;45213;32.654;-115.458;2022-12-29T07:02:32;101369.06;;;15.41;83.55
59409;BME280;45213;32.654;-115.458;2022-12-29T07:04:58;101371.69;;;15.46;83.93
59409;BME280;45213;32.654;-115.458;2022-12-29T07:07:25;101376.03;;;15.53;83.27
59409;BME280;45213;32.654;-115.458;2022-12-29T07:09:52;101369.03;;;15.60;82.89
59409;BME280;45213;32.654;-115.458;2022-12-29T07:12:18;101370.81;;;15.50;83.42
59409;BME280;45213;32.654;-115.458;2022-12-29T07:14:45;101367.31;;;15.48;83.95
59409;BME280;45213;32.654;-115.458;2022-12-29T07:17:11;101359.44;;;15.45;85.06
59409;BME280;45213;32.654;-115.458;2022-12-29T07:19:38;101362.94;;;15.45;85.48
59409;BME280;45213;32.654;-115.458;2022-12-29T07:22:05;101362.94;;;15.44;85.81
59409;BME280;45213;32.654;-115.458;2022-12-29T07:24:31;101368.19;;;15.41;86.76
59409;BME280;45213;32.654;-115.458;2022-12-29T07:26:58;101365.56;;;15.50;86.72
59409;BME280;45213;32.654;-115.458;2022-12-29T07:29:25;101369.94;;;15.47;86.59
59409;BME280;45213;32.654;-115.458;2022-12-29T07:31:51;101363.81;;;15.37;87.15
59409;BME280;45213;32.654;-115.458;2022-12-29T07:34:18;101354.22;;;15.36;87.94
59409;BME280;45213;32.654;-115.458;2022-12-29T07:36:45;101361.22;;;15.40;87.75
59409;BME280;45213;32.654;-115.458;2022-12-29T07:39:12;101359.44;;;15.37;87.63
59409;BME280;45213;32.654;-115.458;2022-12-29T07:41:39;101352.44;;;15.39;87.84
59409;BME280;45213;32.654;-115.458;2022-12-29T07:44:10;101348.97;;;15.36;87.92
59409;BME280;45213;32.654;-115.458;2022-12-29T07:47:09;101343.72;;;15.23;89.05
59409;BME280;45213;32.654;-115.458;2022-12-29T07:49:36;101335.88;;;15.20;89.52
59409;BME280;45213;32.654;-115.458;2022-12-29T07:52:02;101325.34;;;15.23;89.73
59409;BME280;45213;32.654;-115.458;2022-12-29T07:54:29;101319.25;;;15.15;90.29
59409;BME280;45213;32.654;-115.458;2022-12-29T07:56:56;101319.25;;;15.18;90.93
59409;BME280;45213;32.654;-115.458;2022-12-29T07:59:23;101320.13;;;15.14;90.68
59409;BME280;45213;32.654;-115.458;2022-12-29T08:01:50;101314.00;;;15.15;91.50
59409;BME280;45213;32.654;-115.458;2022-12-29T08:04:17;101310.50;;;15.27;91.73
59409;BME280;45213;32.654;-115.458;2022-12-29T08:06:43;101310.47;;;15.30;91.03
59409;BME280;45213;32.654;-115.458;2022-12-29T08:09:11;101314.84;;;15.36;90.67
59409;BME280;45213;32.654;-115.458;2022-12-29T08:11:38;101300.88;;;15.29;90.29
59409;BME280;45213;32.654;-115.458;2022-12-29T08:14:06;101292.09;;;15.35;90.93
59409;BME280;45213;32.654;-115.458;2022-12-29T08:16:33;101289.47;;;15.38;90.72
59409;BME280;45213;32.654;-115.458;2022-12-29T08:19:00;101284.22;;;15.36;91.90
59409;BME280;45213;32.654;-115.458;2022-12-29T08:21:29;101269.41;;;15.24;91.04
59409;BME280;45213;32.654;-115.458;2022-12-29T08:23:56;101262.44;;;15.17;92.87
59409;BME280;45213;32.654;-115.458;2022-12-29T08:26:23;101256.31;;;15.08;93.04
59409;BME280;45213;32.654;-115.458;2022-12-29T08:28:52;101243.19;;;15.14;93.97
59409;BME280;45213;32.654;-115.458;2022-12-29T08:31:19;101235.34;;;15.03;93.81
59409;BME280;45213;32.654;-115.458;2022-12-29T08:33:46;101231.84;;;14.96;94.75
59409;BME280;45213;32.654;-115.458;2022-12-29T08:36:13;101244.97;;;14.93;95.15
59409;BME280;45213;32.654;-115.458;2022-12-29T08:38:39;101257.25;;;14.90;96.00
59409;BME280;45213;32.654;-115.458;2022-12-29T08:41:06;101273.81;;;14.99;96.19
59409;BME280;45213;32.654;-115.458;2022-12-29T08:43:33;101286.91;;;14.96;95.69
59409;BME280;45213;32.654;-115.458;2022-12-29T08:45:59;101287.78;;;15.08;95.99
59409;BME280;45213;32.654;-115.458;2022-12-29T08:48:26;101283.44;;;15.08;95.35
59409;BME280;45213;32.654;-115.458;2022-12-29T08:50:53;101278.19;;;14.82;96.42
59409;BME280;45213;32.654;-115.458;2022-12-29T08:53:20;101295.66;;;14.94;98.44
59409;BME280;45213;32.654;-115.458;2022-12-29T08:55:47;101293.06;;;14.95;97.18
59409;BME280;45213;32.654;-115.458;2022-12-29T08:58:20;101286.06;;;15.02;96.89
59409;BME280;45213;32.654;-115.458;2022-12-29T09:00:47;101278.19;;;15.08;96.71
59409;BME280;45213;32.654;-115.458;2022-12-29T09:03:14;101289.56;;;14.99;95.84
59409;BME280;45213;32.654;-115.458;2022-12-29T09:05:40;101292.19;;;14.86;96.46
59409;BME280;45213;32.654;-115.458;2022-12-29T09:08:07;101284.31;;;14.90;97.98
59409;BME280;45213;32.654;-115.458;2022-12-29T09:10:34;101284.31;;;14.86;97.15
59409;BME280;45213;32.654;-115.458;2022-12-29T09:13:00;101271.22;;;14.73;97.50
59409;BME280;45213;32.654;-115.458;2022-12-29T09:15:27;101265.97;;;14.66;98.90
59409;BME280;45213;32.654;-115.458;2022-12-29T09:17:53;101265.97;;;14.61;99.85
59409;BME280;45213;32.654;-115.458;2022-12-29T09:20:21;101274.69;;;14.60;99.61
59409;BME280;45213;32.654;-115.458;2022-12-29T09:22:48;101263.34;;;14.61;99.96
59409;BME280;45213;32.654;-115.458;2022-12-29T09:25:15;101264.22;;;14.60;100.00
59409;BME280;45213;32.654;-115.458;2022-12-29T09:27:42;101264.22;;;14.63;99.78
59409;BME280;45213;32.654;-115.458;2022-12-29T09:30:11;101265.09;;;14.59;99.88
59409;BME280;45213;32.654;-115.458;2022-12-29T09:32:38;101263.38;;;14.58;100.00
59409;BME280;45213;32.654;-115.458;2022-12-29T09:35:05;101260.72;;;14.55;100.00
59409;BME280;45213;32.654;-115.458;2022-12-29T09:37:32;101251.97;;;14.48;100.00
59409;BME280;45213;32.654;-115.458;2022-12-29T09:39:59;101253.72;;;14.45;100.00
59409;BME280;45213;32.654;-115.458;2022-12-29T09:45:26;101247.59;;;14.46;100.00
59409;BME280;45213;32.654;-115.458;2022-12-29T09:47:55;101249.34;;;14.42;100.00
59409;BME280;45213;32.654;-115.458;2022-12-29T09:50:29;101245.84;;;14.37;100.00
59409;BME280;45213;32.654;-115.458;2022-12-29T09:53:09;101244.97;;;14.39;100.00
59409;BME280;45213;32.654;-115.458;2022-12-29T09:55:44;101248.47;;;14.29;100.00
59409;BME280;45213;32.654;-115.458;2022-12-29T09:58:26;101242.31;;;14.26;100.00
59409;BME280;45213;32.654;-115.458;2022-12-29T10:06:17;101242.34;;;14.23;100.00
59409;BME280;45213;32.654;-115.458;2022-12-29T10:09:06;101253.72;;;14.26;100.00
59409;BME280;45213;32.654;-115.458;2022-12-29T10:11:58;101244.09;;;14.34;100.00
59409;BME280;45213;32.654;-115.458;2022-12-29T10:18:00;101240.59;;;14.25;100.00
59409;BME280;45213;32.654;-115.458;2022-12-29T10:20:18;101236.22;;;14.16;100.00
59409;BME280;45213;32.654;-115.458;2022-12-29T10:25:26;101221.38;;;14.15;100.00
59409;BME280;45213;32.654;-115.458;2022-12-29T10:27:57;101226.63;;;14.19;100.00
59409;BME280;45213;32.654;-115.458;2022-12-29T10:30:25;101220.50;;;14.16;100.00
59409;BME280;45213;32.654;-115.458;2022-12-29T10:32:56;101218.78;;;14.15;100.00
59409;BME280;45213;32.654;-115.458;2022-12-29T10:35:26;101222.25;;;14.25;100.00
59409;BME280;45213;32.654;-115.458;2022-12-29T10:41:18;101212.66;;;14.30;100.00
59409;BME280;45213;32.654;-115.458;2022-12-29T10:43:49;101210.03;;;14.25;100.00
59409;BME280;45213;32.654;-115.458;2022-12-29T10:46:28;101211.78;;;14.23;100.00
59409;BME280;45213;32.654;-115.458;2022-12-29T10:48:55;101209.13;;;14.12;100.00
59409;BME280;45213;32.654;-115.458;2022-12-29T10:51:25;101203.91;;;14.09;100.00
59409;BME280;45213;32.654;-115.458;2022-12-29T10:56:40;101191.69;;;14.16;100.00
59409;BME280;45213;32.654;-115.458;2022-12-29T10:59:22;101201.28;;;14.17;100.00
59409;BME280;45213;32.654;-115.458;2022-12-29T11:04:42;101208.28;;;14.24;100.00
59409;BME280;45213;32.654;-115.458;2022-12-29T11:07:09;101204.78;;;14.25;100.00
59409;BME280;45213;32.654;-115.458;2022-12-29T11:09:40;101214.41;;;14.31;100.00
59409;BME280;45213;32.654;-115.458;2022-12-29T11:14:49;101214.41;;;14.31;100.00
59409;BME280;45213;32.654;-115.458;2022-12-29T11:17:26;101214.41;;;14.34;100.00
59409;BME280;45213;32.654;-115.458;2022-12-29T11:19:53;101223.16;;;14.36;100.00
59409;BME280;45213;32.654;-115.458;2022-12-29T11:22:25;101230.97;;;14.28;100.00
59409;BME280;45213;32.654;-115.458;2022-12-29T11:24:54;101238.88;;;14.31;100.00
59409;BME280;45213;32.654;-115.458;2022-12-29T11:27:23;101245.84;;;14.43;100.00
59409;BME280;45213;32.654;-115.458;2022-12-29T11:29:52;101237.13;;;14.47;100.00
59409;BME280;45213;32.654;-115.458;2022-12-29T11:32:21;101233.63;;;14.48;100.00
59409;BME280;45213;32.654;-115.458;2022-12-29T11:34:48;101237.97;;;14.41;100.00
59409;BME280;45213;32.654;-115.458;2022-12-29T11:37:20;101231.88;;;14.43;100.00
59409;BME280;45213;32.654;-115.458;2022-12-29T11:39:54;101241.47;;;14.37;100.00
59409;BME280;45213;32.654;-115.458;2022-12-29T11:42:33;101246.69;;;14.37;100.00
59409;BME280;45213;32.654;-115.458;2022-12-29T11:45:09;101249.34;;;14.39;100.00
59409;BME280;45213;32.654;-115.458;2022-12-29T11:47:42;101259.81;;;14.44;100.00
59409;BME280;45213;32.654;-115.458;2022-12-29T11:50:21;101262.47;;;14.47;100.00
59409;BME280;45213;32.654;-115.458;2022-12-29T11:52:51;101270.31;;;14.42;100.00
59409;BME280;45213;32.654;-115.458;2022-12-29T11:55:26;101280.81;;;14.47;100.00
59409;BME280;45213;32.654;-115.458;2022-12-29T11:57:55;101289.53;;;14.52;100.00
59409;BME280;45213;32.654;-115.458;2022-12-29T12:00:24;101291.25;;;14.48;100.00
59409;BME280;45213;32.654;-115.458;2022-12-29T12:05:40;101285.16;;;14.48;100.00
59409;BME280;45213;32.654;-115.458;2022-12-29T12:08:38;101293.94;;;14.56;100.00
59409;BME280;45213;32.654;-115.458;2022-12-29T12:11:16;101300.06;;;14.63;100.00
59409;BME280;45213;32.654;-115.458;2022-12-29T12:16:52;101307.03;;;14.67;100.00
59409;BME280;45213;32.654;-115.458;2022-12-29T12:19:34;101311.41;;;14.69;100.00
59409;BME280;45213;32.654;-115.458;2022-12-29T12:22:21;101310.53;;;14.59;100.00
59409;BME280;45213;32.654;-115.458;2022-12-29T12:24:59;101313.13;;;14.55;100.00
59409;BME280;45213;32.654;-115.458;2022-12-29T12:30:20;101314.00;;;14.49;100.00
59409;BME280;45213;32.654;-115.458;2022-12-29T12:33:27;101313.97;;;14.45;100.00
59409;BME280;45213;32.654;-115.458;2022-12-29T12:36:28;101316.59;;;14.35;100.00
59409;BME280;45213;32.654;-115.458;2022-12-29T12:41:39;101331.41;;;14.24;100.00
59409;BME280;45213;32.654;-115.458;2022-12-29T12:47:07;101360.19;;;14.16;100.00
59409;BME280;45213;32.654;-115.458;2022-12-29T13:10:01;101415.19;;;14.15;100.00
59409;BME280;45213;32.654;-115.458;2022-12-29T13:21:06;101429.94;;;14.00;100.00
59409;BME280;45213;32.654;-115.458;2022-12-29T13:23:41;101428.16;;;13.96;100.00
59409;BME280;45213;32.654;-115.458;2022-12-29T13:26:35;101438.66;;;13.96;100.00
59409;BME280;45213;32.654;-115.458;2022-12-29T13:29:18;101439.56;;;13.97;100.00
59409;BME280;45213;32.654;-115.458;2022-12-29T13:37:31;101457.00;;;13.99;100.00
59409;BME280;45213;32.654;-115.458;2022-12-29T13:40:13;101469.19;;;13.90;100.00
59409;BME280;45213;32.654;-115.458;2022-12-29T13:42:43;101467.53;;;14.06;100.00
59409;BME280;45213;32.654;-115.458;2022-12-29T13:45:18;101459.59;;;13.96;100.00
59409;BME280;45213;32.654;-115.458;2022-12-29T13:50:26;101450.78;;;13.79;100.00
59409;BME280;45213;32.654;-115.458;2022-12-29T13:58:20;101472.66;;;13.86;100.00
59409;BME280;45213;32.654;-115.458;2022-12-29T14:01:00;101477.91;;;13.93;100.00
59409;BME280;45213;32.654;-115.458;2022-12-29T14:06:30;101498.03;;;14.00;100.00
59409;BME280;45213;32.654;-115.458;2022-12-29T14:09:01;101500.69;;;14.05;100.00
59409;BME280;45213;32.654;-115.458;2022-12-29T14:11:33;101505.00;;;13.98;100.00
59409;BME280;45213;32.654;-115.458;2022-12-29T14:14:27;101504.91;;;13.83;100.00
59409;BME280;45213;32.654;-115.458;2022-12-29T14:16:54;101501.38;;;13.78;100.00
59409;BME280;45213;32.654;-115.458;2022-12-29T14:19:32;101501.28;;;13.66;100.00
59409;BME280;45213;32.654;-115.458;2022-12-29T14:22:03;101494.28;;;13.62;100.00
59409;BME280;45213;32.654;-115.458;2022-12-29T14:34:57;101486.41;;;13.58;100.00
59409;BME280;45213;32.654;-115.458;2022-12-29T14:37:32;101485.50;;;13.56;100.00
59409;BME280;45213;32.654;-115.458;2022-12-29T14:40:23;101473.31;;;13.58;100.00
59409;BME280;45213;32.654;-115.458;2022-12-29T14:42:55;101464.53;;;13.53;100.00
59409;BME280;45213;32.654;-115.458;2022-12-29T14:45:29;101474.16;;;13.54;100.00
59409;BME280;45213;32.654;-115.458;2022-12-29T14:47:56;101462.00;;;13.58;100.00
59409;BME280;45213;32.654;-115.458;2022-12-29T14:50:24;101451.44;;;13.53;100.00
59409;BME280;45213;32.654;-115.458;2022-12-29T14:53:03;101439.22;;;13.51;100.00
59409;BME280;45213;32.654;-115.458;2022-12-29T15:00:40;101415.69;;;13.52;100.00
59409;BME280;45213;32.654;-115.458;2022-12-29T15:03:21;101406.97;;;13.53;100.00
59409;BME280;45213;32.654;-115.458;2022-12-29T15:05:52;101405.22;;;13.49;100.00
59409;BME280;45213;32.654;-115.458;2022-12-29T15:08:24;101406.97;;;13.47;100.00
59409;BME280;45213;32.654;-115.458;2022-12-29T15:11:19;101406.97;;;13.52;100.00
59409;BME280;45213;32.654;-115.458;2022-12-29T15:13:47;101397.41;;;13.55;100.00